CheckWX is a tool to help pilots better visualize weather data.  It is not intended as a substitute for an official pre-flight weather briefing.

13:07:44 UTC

WBGR TAF
Miri Airport
Miri, Malaysia
TAF WBGR 241100Z 2412/2512 14005KT 9999 SCT016 TEMPO 2412/2416 4000 TSRA FEW015CB

May-24@
12:00 UTC

May-24 @ 12:00 UTC

May-25@
12:00 UTC

May-25 @ 12:00 UTC

TAF WBGR 241100Z 2412/2512 14005KT 9999 SCT016
Wind
  • 140° at 5 KTS
Cloud Levels
  • Scattered at 1,600' AGL

May-24@
12:00 UTC

May-24 @ 12:00 UTC

May-24@
16:00 UTC

May-24 @ 16:00 UTC

TEMPO 2412/2416 4000 TSRA FEW015CB

Temporary

Temporary Changes expected for less than half the time period

Conditions
Thunderstorm, Rain
Cloud Levels
  • Few at 1,500' AGL